createdAt,value
2023-06-07T00:01:57.016Z,4.20
2023-06-07T00:04:24.111Z,4.03
2023-06-07T00:06:57.599Z,4.50
2023-06-07T00:09:24.540Z,4.60
2023-06-07T00:11:51.243Z,4.80
2023-06-07T00:14:17.991Z,6.10
2023-06-07T00:16:45.910Z,6.13
2023-06-07T00:19:13.187Z,5.03
2023-06-07T00:21:39.953Z,4.30
2023-06-07T00:24:06.993Z,4.33
2023-06-07T00:26:34.302Z,4.60
2023-06-07T00:29:01.049Z,4.10
2023-06-07T00:31:27.925Z,4.57
2023-06-07T00:33:54.748Z,3.80
2023-06-07T00:36:21.463Z,4.30
2023-06-07T00:38:48.184Z,3.83
2023-06-07T00:41:14.854Z,3.73
2023-06-07T00:43:41.527Z,4.13
2023-06-07T00:46:08.614Z,4.00
2023-06-07T00:48:36.211Z,4.10
2023-06-07T00:51:03.425Z,3.93
2023-06-07T00:53:30.794Z,7.50
2023-06-07T00:55:58.126Z,5.83
2023-06-07T00:58:26.761Z,5.60
2023-06-07T01:00:55.317Z,4.80
2023-06-07T01:03:23.266Z,4.40
2023-06-07T01:05:51.179Z,4.20
2023-06-07T01:08:18.016Z,4.80
2023-06-07T01:10:44.939Z,4.10
2023-06-07T01:13:12.542Z,3.90
2023-06-07T01:15:39.770Z,4.30
2023-06-07T01:18:10.698Z,4.37
2023-06-07T01:20:39.989Z,4.57
2023-06-07T01:23:10.206Z,3.77
2023-06-07T01:25:37.070Z,4.90
2023-06-07T01:28:05.145Z,4.40
2023-06-07T01:30:34.687Z,4.23
2023-06-07T01:33:05.321Z,4.57
2023-06-07T01:35:33.653Z,4.83
2023-06-07T01:38:01.979Z,5.30
2023-06-07T01:40:30.714Z,4.80
2023-06-07T01:42:58.135Z,5.03
2023-06-07T01:45:25.272Z,5.40
2023-06-07T01:47:52.382Z,4.63
2023-06-07T01:50:23.559Z,5.63
2023-06-07T01:52:50.493Z,5.27
2023-06-07T01:55:18.231Z,5.40
2023-06-07T01:57:51.896Z,5.70
2023-06-07T02:00:29.576Z,5.27
2023-06-07T02:02:59.053Z,5.07
2023-06-07T02:05:33.248Z,4.97
2023-06-07T02:08:04.075Z,5.30
2023-06-07T02:10:33.271Z,5.87
2023-06-07T02:13:00.688Z,5.80
2023-06-07T02:15:27.511Z,6.20
2023-06-07T02:17:59.004Z,5.40
2023-06-07T02:20:27.383Z,5.60
2023-06-07T02:22:54.511Z,5.57
2023-06-07T02:25:21.413Z,5.70
2023-06-07T02:27:48.199Z,6.30
2023-06-07T02:30:15.008Z,5.90
2023-06-07T02:32:41.741Z,5.40
2023-06-07T02:35:09.308Z,5.17
2023-06-07T02:37:36.716Z,6.07
2023-06-07T02:40:06.944Z,5.63
2023-06-07T02:42:33.669Z,5.77
2023-06-07T02:45:02.838Z,6.10
2023-06-07T02:47:30.653Z,6.57
2023-06-07T02:49:58.283Z,6.10
2023-06-07T02:52:28.737Z,5.73
2023-06-07T02:54:55.510Z,6.17
2023-06-07T02:57:22.237Z,5.60
2023-06-07T02:59:49.223Z,6.53
2023-06-07T03:02:16.938Z,5.50
2023-06-07T03:04:44.836Z,6.70
2023-06-07T03:07:12.086Z,6.43
2023-06-07T03:09:39.091Z,6.40
2023-06-07T03:12:07.608Z,6.07
2023-06-07T03:14:35.740Z,6.70
2023-06-07T03:17:03.899Z,5.67
2023-06-07T03:19:31.064Z,6.27
2023-06-07T03:21:58.191Z,6.80
2023-06-07T03:24:25.784Z,6.20
2023-06-07T03:26:53.494Z,6.40
2023-06-07T03:29:20.353Z,5.67
2023-06-07T03:31:47.049Z,6.40
2023-06-07T03:34:13.770Z,7.10
2023-06-07T03:36:41.237Z,7.10
2023-06-07T03:39:07.958Z,6.37
2023-06-07T03:41:34.662Z,6.70
2023-06-07T03:44:01.325Z,6.30
2023-06-07T03:46:28.128Z,6.47
2023-06-07T03:48:54.834Z,7.20
2023-06-07T03:51:21.909Z,6.63
2023-06-07T03:53:48.868Z,6.63
2023-06-07T03:56:15.937Z,7.00
2023-06-07T03:58:42.638Z,6.17
2023-06-07T04:01:09.367Z,7.10
2023-06-07T04:03:36.221Z,8.07
2023-06-07T04:06:03.095Z,6.03
2023-06-07T04:08:29.827Z,6.67
2023-06-07T04:10:56.728Z,7.27
2023-06-07T04:13:23.457Z,7.20
2023-06-07T04:15:50.472Z,6.60
2023-06-07T04:18:17.132Z,6.97
2023-06-07T04:20:43.932Z,7.10
2023-06-07T04:23:11.573Z,7.00
2023-06-07T04:25:39.840Z,6.90
2023-06-07T04:28:06.811Z,7.00
2023-06-07T04:30:37.613Z,7.30
2023-06-07T04:33:09.635Z,8.20
2023-06-07T04:35:42.811Z,7.40
2023-06-07T04:38:23.282Z,6.93
2023-06-07T04:40:53.429Z,6.73
2023-06-07T04:43:20.925Z,8.00
2023-06-07T04:45:55.318Z,7.60
2023-06-07T04:48:24.014Z,7.00
2023-06-07T04:50:52.137Z,7.17
2023-06-07T04:53:22.325Z,6.20
2023-06-07T04:55:49.724Z,7.17
2023-06-07T04:58:17.837Z,7.10
2023-06-07T05:00:45.090Z,6.40
2023-06-07T05:03:14.488Z,7.90
2023-06-07T05:05:41.399Z,7.33
2023-06-07T05:08:08.186Z,7.00
2023-06-07T05:10:35.069Z,7.17
2023-06-07T05:13:02.103Z,7.33
2023-06-07T05:15:29.327Z,7.17
2023-06-07T05:17:56.356Z,7.60
2023-06-07T05:20:25.911Z,7.73
2023-06-07T05:22:52.883Z,6.80
2023-06-07T05:25:19.609Z,7.60
2023-06-07T05:27:54.012Z,7.27
2023-06-07T05:30:26.903Z,7.77
2023-06-07T05:32:53.800Z,6.93
2023-06-07T05:35:20.722Z,6.80
2023-06-07T05:37:49.162Z,6.57
2023-06-07T05:40:19.134Z,7.37
2023-06-07T05:42:51.180Z,6.67
2023-06-07T05:45:19.741Z,6.40
2023-06-07T05:47:48.496Z,6.80
2023-06-07T05:50:16.184Z,6.83
2023-06-07T05:52:43.025Z,7.13
2023-06-07T05:55:09.896Z,8.13
2023-06-07T05:57:36.920Z,6.93
2023-06-07T06:00:12.397Z,6.90
2023-06-07T06:02:40.419Z,6.73
2023-06-07T06:05:07.874Z,8.00
2023-06-07T06:07:34.683Z,6.87
2023-06-07T06:10:01.855Z,7.93
2023-06-07T06:12:28.665Z,6.50
2023-06-07T06:14:56.194Z,7.13
2023-06-07T06:17:23.755Z,7.83
2023-06-07T06:19:50.498Z,7.50
2023-06-07T06:22:17.786Z,7.27
2023-06-07T06:24:44.501Z,6.73
2023-06-07T06:27:12.880Z,6.90
2023-06-07T06:29:39.754Z,5.93
2023-06-07T06:32:07.207Z,6.97
2023-06-07T06:34:33.906Z,6.37
2023-06-07T06:37:01.895Z,5.97
2023-06-07T06:39:28.695Z,6.93
2023-06-07T06:41:55.418Z,6.50
2023-06-07T06:44:22.110Z,6.67
2023-06-07T06:46:50.009Z,6.70
2023-06-07T06:49:17.117Z,6.60
2023-06-07T06:51:46.083Z,6.43
2023-06-07T06:54:13.496Z,6.10
2023-06-07T06:56:40.339Z,6.63
2023-06-07T06:59:07.031Z,6.60
2023-06-07T07:01:50.778Z,6.77
2023-06-07T07:04:18.416Z,6.30
2023-06-07T07:06:45.658Z,6.20
2023-06-07T07:09:13.654Z,5.80
2023-06-07T07:11:40.491Z,6.83
2023-06-07T07:14:07.248Z,7.70
2023-06-07T07:16:36.921Z,7.80
2023-06-07T07:19:05.742Z,6.27
2023-06-07T07:21:32.478Z,6.87
2023-06-07T07:23:59.206Z,6.20
2023-06-07T07:26:27.208Z,6.60
2023-06-07T07:28:54.378Z,6.90
2023-06-07T07:31:22.172Z,6.93
2023-06-07T07:33:49.230Z,7.00
2023-06-07T07:36:17.320Z,6.60
2023-06-07T07:38:46.568Z,8.47
2023-06-07T07:41:14.921Z,7.50
2023-06-07T07:43:41.740Z,7.00
2023-06-07T07:46:08.470Z,8.30
2023-06-07T07:48:35.417Z,8.27
2023-06-07T07:51:03.213Z,7.87
2023-06-07T07:53:29.994Z,8.20
2023-06-07T07:55:57.261Z,7.83
2023-06-07T07:58:24.172Z,7.87
2023-06-07T08:00:51.094Z,7.77
2023-06-07T08:03:17.978Z,8.87
2023-06-07T08:05:45.038Z,8.80
2023-06-07T08:08:11.883Z,8.23
2023-06-07T08:10:38.635Z,8.17
2023-06-07T08:13:05.337Z,8.83
2023-06-07T08:15:33.101Z,8.23
2023-06-07T08:17:59.841Z,9.40
2023-06-07T08:20:26.512Z,8.67
2023-06-07T08:22:54.316Z,8.77
2023-06-07T08:25:21.252Z,9.20
2023-06-07T08:27:48.217Z,9.17
2023-06-07T08:30:15.349Z,8.50
2023-06-07T08:32:43.426Z,9.10
2023-06-07T08:35:11.671Z,9.00
2023-06-07T08:37:39.201Z,8.67
2023-06-07T08:40:07.325Z,8.13
2023-06-07T08:42:34.594Z,8.87
2023-06-07T08:45:01.491Z,8.10
2023-06-07T08:47:30.159Z,8.63
2023-06-07T08:49:58.363Z,8.50
2023-06-07T08:52:26.487Z,8.30
2023-06-07T08:54:59.973Z,8.43
2023-06-07T08:57:28.541Z,8.57
2023-06-07T08:59:55.797Z,8.43
2023-06-07T09:02:22.759Z,7.93
2023-06-07T09:04:49.607Z,8.40
2023-06-07T09:07:16.499Z,9.20
2023-06-07T09:09:44.816Z,7.40
2023-06-07T09:12:14.559Z,7.60
2023-06-07T09:14:41.649Z,8.30
2023-06-07T09:17:08.953Z,9.17
2023-06-07T09:19:39.847Z,7.90
2023-06-07T09:22:08.728Z,8.37
2023-06-07T09:24:36.107Z,7.90
2023-06-07T09:27:04.398Z,7.47
2023-06-07T09:29:39.566Z,7.40
2023-06-07T09:32:19.507Z,6.90
2023-06-07T09:34:49.936Z,6.80
2023-06-07T09:37:21.935Z,7.70
2023-06-07T09:39:52.526Z,7.43
2023-06-07T09:42:19.537Z,6.40
2023-06-07T09:44:46.516Z,7.53
2023-06-07T09:47:24.111Z,7.80
2023-06-07T09:49:56.552Z,8.30
2023-06-07T09:52:23.940Z,7.80
2023-06-07T09:54:50.852Z,8.20
2023-06-07T09:57:40.506Z,7.97
2023-06-07T10:00:12.033Z,8.27
2023-06-07T10:02:39.000Z,7.93
2023-06-07T10:05:05.877Z,8.47
2023-06-07T10:07:38.339Z,9.37
2023-06-07T10:10:09.748Z,8.80
2023-06-07T10:12:41.397Z,8.00
2023-06-07T10:15:27.678Z,8.27
2023-06-07T10:18:20.755Z,8.03
2023-06-07T10:21:12.579Z,8.23
2023-06-07T10:23:56.576Z,7.83
2023-06-07T10:26:36.307Z,8.70
2023-06-07T10:29:09.412Z,9.30
2023-06-07T10:31:42.001Z,8.10
2023-06-07T10:34:11.014Z,8.43
2023-06-07T10:36:39.623Z,9.50
2023-06-07T10:39:12.402Z,8.70
2023-06-07T10:41:39.406Z,10.90
2023-06-07T10:44:06.573Z,9.07
2023-06-07T10:46:33.362Z,9.77
2023-06-07T10:49:01.096Z,9.97
2023-06-07T10:51:44.970Z,9.60
2023-06-07T10:54:11.877Z,10.00
2023-06-07T10:56:39.603Z,9.80
2023-06-07T10:59:21.052Z,10.00
2023-06-07T11:01:49.980Z,11.20
2023-06-07T11:04:32.542Z,11.53
2023-06-07T11:07:20.588Z,10.63
2023-06-07T11:09:49.598Z,11.37
2023-06-07T11:12:46.032Z,11.50
2023-06-07T11:15:19.608Z,10.17
2023-06-07T11:18:00.142Z,11.10
2023-06-07T11:20:39.279Z,12.80
2023-06-07T11:23:28.439Z,11.50
2023-06-07T11:26:12.629Z,11.87
2023-06-07T11:28:41.585Z,12.00
2023-06-07T11:31:12.853Z,13.00
2023-06-07T11:33:43.707Z,12.30
2023-06-07T11:36:12.143Z,13.30
2023-06-07T11:38:39.631Z,13.00
2023-06-07T11:41:07.373Z,13.43
2023-06-07T11:43:34.565Z,14.17
2023-06-07T11:46:01.636Z,14.07
2023-06-07T11:48:29.976Z,14.60
2023-06-07T11:50:57.842Z,14.40
2023-06-07T11:53:25.182Z,14.00
2023-06-07T11:55:54.172Z,17.30
2023-06-07T11:58:21.817Z,14.50
2023-06-07T12:00:50.899Z,15.23
2023-06-07T12:03:22.006Z,15.10
2023-06-07T12:05:49.965Z,15.43
2023-06-07T12:08:18.332Z,15.57
2023-06-07T12:10:53.919Z,16.37
2023-06-07T12:13:22.206Z,15.70
2023-06-07T12:15:58.834Z,16.33
2023-06-07T12:18:30.346Z,15.20
2023-06-07T12:21:04.518Z,15.00
2023-06-07T12:23:32.390Z,14.40
2023-06-07T12:26:16.578Z,15.50
2023-06-07T12:28:44.461Z,15.63
2023-06-07T12:31:21.893Z,16.80
2023-06-07T12:34:03.429Z,19.20
2023-06-07T12:36:33.060Z,19.10
2023-06-07T12:39:04.784Z,21.73
2023-06-07T12:41:33.548Z,20.93
2023-06-07T12:44:02.356Z,23.63
2023-06-07T12:46:30.392Z,24.50
2023-06-07T12:48:57.573Z,25.80
2023-06-07T12:51:25.769Z,27.53
2023-06-07T12:53:56.220Z,24.90
2023-06-07T12:56:23.344Z,26.10
2023-06-07T12:58:50.446Z,27.03
2023-06-07T13:01:17.641Z,28.90
2023-06-07T13:03:45.277Z,28.97
2023-06-07T13:06:12.390Z,30.20
2023-06-07T13:08:39.634Z,31.00
2023-06-07T13:11:07.034Z,31.00
2023-06-07T13:13:34.344Z,32.23
2023-06-07T13:16:01.459Z,33.10
2023-06-07T13:18:30.364Z,33.00
2023-06-07T13:20:57.243Z,32.60
2023-06-07T13:23:24.760Z,32.63
2023-06-07T13:25:51.681Z,34.20
2023-06-07T13:28:20.682Z,32.13
2023-06-07T13:30:47.666Z,31.50
2023-06-07T13:33:18.743Z,31.57
2023-06-07T13:35:45.612Z,29.80
2023-06-07T13:38:12.389Z,28.50
2023-06-07T13:40:39.143Z,24.63
2023-06-07T13:43:06.448Z,24.13
2023-06-07T13:45:33.326Z,23.73
2023-06-07T13:48:00.525Z,23.40
2023-06-07T13:50:27.290Z,22.43
2023-06-07T13:52:54.146Z,22.80
2023-06-07T13:55:21.857Z,23.50
2023-06-07T13:57:48.625Z,22.13
2023-06-07T14:00:16.167Z,21.40
2023-06-07T14:02:43.468Z,21.17
2023-06-07T14:05:11.172Z,21.37
2023-06-07T14:07:38.234Z,23.00
2023-06-07T14:10:05.615Z,24.57
2023-06-07T14:12:33.282Z,24.80
2023-06-07T14:15:00.048Z,26.37
2023-06-07T14:17:27.077Z,26.83
2023-06-07T14:19:54.089Z,27.27
2023-06-07T14:22:21.000Z,25.03
2023-06-07T14:24:47.805Z,25.37
2023-06-07T14:27:14.827Z,25.93
2023-06-07T14:29:41.965Z,24.20
2023-06-07T14:32:09.474Z,23.20
2023-06-07T14:34:36.319Z,23.60
2023-06-07T14:37:03.169Z,21.53
2023-06-07T14:39:29.880Z,19.47
2023-06-07T14:41:56.737Z,21.07
2023-06-07T14:44:25.083Z,18.83
2023-06-07T14:46:51.833Z,20.10
2023-06-07T14:49:18.671Z,16.73
2023-06-07T14:51:48.684Z,15.07
2023-06-07T14:54:15.962Z,14.47
2023-06-07T14:56:42.763Z,14.70
2023-06-07T14:59:14.035Z,13.70
2023-06-07T15:01:41.421Z,13.13
2023-06-07T15:04:08.474Z,14.07
2023-06-07T15:06:35.355Z,13.30
2023-06-07T15:09:02.582Z,13.10
2023-06-07T15:11:29.388Z,16.00
2023-06-07T15:13:56.375Z,14.50
2023-06-07T15:16:23.262Z,15.23
2023-06-07T15:18:50.993Z,14.70
2023-06-07T15:21:17.780Z,14.47
2023-06-07T15:23:44.586Z,14.63
2023-06-07T15:26:11.322Z,14.90
2023-06-07T15:28:38.226Z,13.93
2023-06-07T15:31:05.269Z,15.43
2023-06-07T15:33:32.302Z,15.70
2023-06-07T15:35:59.044Z,15.47
2023-06-07T15:38:25.869Z,17.60
2023-06-07T15:40:52.880Z,17.97
2023-06-07T15:43:19.770Z,20.70
2023-06-07T15:45:47.988Z,18.40
2023-06-07T15:48:14.819Z,17.63
2023-06-07T15:50:41.676Z,18.10
2023-06-07T15:53:09.293Z,17.30
2023-06-07T15:55:36.364Z,18.60
2023-06-07T15:58:03.077Z,18.13
2023-06-07T16:00:37.897Z,18.13
2023-06-07T16:03:06.531Z,21.03
2023-06-07T16:05:33.421Z,19.20
2023-06-07T16:08:04.719Z,19.20
2023-06-07T16:10:34.427Z,18.30
2023-06-07T16:13:01.199Z,19.90
2023-06-07T16:15:28.067Z,21.17
2023-06-07T16:17:55.288Z,20.30
2023-06-07T16:20:22.322Z,19.33
2023-06-07T16:22:49.321Z,18.90
2023-06-07T16:25:16.035Z,21.47
2023-06-07T16:27:42.747Z,17.87
2023-06-07T16:30:09.758Z,19.87
2023-06-07T16:32:36.503Z,17.53
2023-06-07T16:35:03.382Z,18.37
2023-06-07T16:37:30.113Z,18.60
2023-06-07T16:39:57.004Z,17.87
2023-06-07T16:42:24.254Z,17.33
2023-06-07T16:44:51.057Z,18.13
2023-06-07T16:47:17.812Z,17.63
2023-06-07T16:49:44.528Z,17.57
2023-06-07T16:52:14.492Z,16.83
2023-06-07T16:54:41.804Z,17.20
2023-06-07T16:57:08.854Z,17.80
2023-06-07T16:59:35.649Z,17.37
2023-06-07T17:02:02.714Z,17.83
2023-06-07T17:04:29.569Z,18.60
2023-06-07T17:06:56.352Z,18.43
2023-06-07T17:09:23.093Z,16.27
2023-06-07T17:11:49.761Z,16.73
2023-06-07T17:14:20.000Z,18.20
2023-06-07T17:16:46.775Z,17.73
2023-06-07T17:19:13.586Z,16.47
2023-06-07T17:21:40.570Z,17.23
2023-06-07T17:24:07.863Z,17.40
2023-06-07T17:26:35.397Z,17.40
2023-06-07T17:29:09.820Z,17.93
2023-06-07T17:31:45.398Z,18.90
2023-06-07T17:34:14.627Z,19.10
2023-06-07T17:36:44.759Z,18.20
2023-06-07T17:39:12.230Z,18.60
2023-06-07T17:41:42.872Z,17.20
2023-06-07T17:44:09.621Z,18.50
2023-06-07T17:46:37.268Z,17.40
2023-06-07T17:49:04.181Z,18.97
2023-06-07T17:51:31.671Z,18.33
2023-06-07T17:54:00.957Z,18.30
2023-06-07T17:56:28.876Z,18.10
2023-06-07T17:58:57.285Z,18.07
2023-06-07T18:01:24.101Z,18.93
2023-06-07T18:03:55.368Z,19.33
2023-06-07T18:06:22.378Z,21.20
2023-06-07T18:08:49.089Z,19.87
2023-06-07T18:11:15.906Z,19.90
2023-06-07T18:13:42.671Z,17.37
2023-06-07T18:16:09.482Z,17.97
2023-06-07T18:18:36.846Z,17.40
2023-06-07T18:21:03.651Z,16.63
2023-06-07T18:23:30.645Z,17.30
2023-06-07T18:26:01.161Z,17.53
2023-06-07T18:28:28.146Z,17.80
2023-06-07T18:30:55.042Z,16.47
2023-06-07T18:33:21.872Z,14.90
2023-06-07T18:35:48.758Z,13.17
2023-06-07T18:38:15.636Z,12.20
2023-06-07T18:40:42.353Z,14.20
2023-06-07T18:43:11.656Z,12.67
2023-06-07T18:45:38.957Z,11.17
2023-06-07T18:48:06.395Z,11.60
2023-06-07T18:50:33.174Z,19.70
2023-06-07T18:52:59.877Z,20.20
2023-06-07T18:55:26.631Z,16.77
2023-06-07T18:57:53.580Z,15.73
2023-06-07T19:00:20.792Z,12.47
2023-06-07T19:02:47.625Z,11.10
2023-06-07T19:05:14.973Z,12.30
2023-06-07T19:07:41.734Z,11.83
2023-06-07T19:10:08.663Z,11.07
2023-06-07T19:12:35.397Z,11.60
2023-06-07T19:15:02.418Z,11.73
2023-06-07T19:17:29.277Z,10.57
2023-06-07T19:19:58.115Z,13.13
2023-06-07T19:22:24.873Z,14.23
2023-06-07T19:24:51.674Z,21.27
2023-06-07T19:27:19.560Z,17.60
2023-06-07T19:29:46.294Z,14.37
2023-06-07T19:32:13.036Z,17.70
2023-06-07T19:34:39.858Z,19.63
2023-06-07T19:37:06.999Z,15.20
2023-06-07T19:39:33.980Z,15.87
2023-06-07T19:42:04.450Z,13.40
2023-06-07T19:44:31.190Z,11.07
2023-06-07T19:47:03.357Z,10.20
2023-06-07T19:49:30.375Z,14.30
2023-06-07T19:51:57.133Z,12.70
2023-06-07T19:54:23.861Z,12.70
2023-06-07T19:56:50.790Z,13.33
2023-06-07T19:59:17.756Z,18.00
2023-06-07T20:01:44.539Z,14.90
2023-06-07T20:04:12.607Z,12.30
2023-06-07T20:06:42.359Z,14.73
2023-06-07T20:09:09.429Z,12.27
2023-06-07T20:11:37.225Z,11.93
2023-06-07T20:14:04.309Z,12.00
2023-06-07T20:16:31.434Z,11.60
2023-06-07T20:18:58.213Z,10.50
2023-06-07T20:21:27.587Z,11.00
2023-06-07T20:23:54.471Z,12.77
2023-06-07T20:26:21.276Z,11.67
2023-06-07T20:28:48.043Z,10.63
2023-06-07T20:31:15.146Z,11.70
2023-06-07T20:33:42.009Z,10.77
2023-06-07T20:36:09.649Z,15.43
2023-06-07T20:38:36.531Z,11.17
2023-06-07T20:41:03.307Z,12.30
2023-06-07T20:43:30.097Z,10.50
2023-06-07T20:45:57.316Z,11.13
2023-06-07T20:48:24.161Z,12.33
2023-06-07T20:50:50.973Z,11.10
2023-06-07T20:53:17.698Z,11.30
2023-06-07T20:55:44.486Z,13.20
2023-06-07T20:58:11.307Z,14.40
2023-06-07T21:00:40.078Z,13.00
2023-06-07T21:03:07.021Z,12.00
2023-06-07T21:05:34.165Z,10.67
2023-06-07T21:08:01.166Z,9.50
2023-06-07T21:10:27.968Z,9.97
2023-06-07T21:12:54.706Z,9.97
2023-06-07T21:15:21.496Z,10.50
2023-06-07T21:17:48.292Z,12.77
2023-06-07T21:20:15.517Z,19.23
2023-06-07T21:22:42.925Z,19.70
2023-06-07T21:25:09.735Z,16.00
2023-06-07T21:27:37.482Z,19.57
2023-06-07T21:30:04.818Z,19.00
2023-06-07T21:32:32.594Z,16.90
2023-06-07T21:35:01.097Z,19.83
2023-06-07T21:37:27.788Z,18.50
2023-06-07T21:39:55.379Z,20.47
2023-06-07T21:42:22.124Z,17.40
2023-06-07T21:44:48.849Z,20.27
2023-06-07T21:47:15.569Z,28.50
2023-06-07T21:49:42.275Z,20.70
2023-06-07T21:52:09.314Z,23.60
2023-06-07T21:54:47.818Z,17.17
2023-06-07T21:57:14.640Z,17.07
2023-06-07T21:59:41.836Z,17.37
2023-06-07T22:02:08.635Z,18.47
2023-06-07T22:04:35.574Z,16.70
2023-06-07T22:07:02.983Z,19.63
2023-06-07T22:09:29.768Z,23.93
2023-06-07T22:11:57.697Z,22.67
2023-06-07T22:14:24.506Z,19.40
2023-06-07T22:16:51.230Z,18.27
2023-06-07T22:19:20.130Z,18.13
2023-06-07T22:21:50.154Z,15.53
2023-06-07T22:24:16.978Z,12.97
2023-06-07T22:26:43.946Z,11.93
2023-06-07T22:29:12.187Z,11.80
2023-06-07T22:31:40.212Z,11.73
2023-06-07T22:34:08.275Z,15.93
2023-06-07T22:36:42.234Z,24.63
2023-06-07T22:39:11.305Z,14.97
2023-06-07T22:41:38.042Z,13.10
2023-06-07T22:44:05.220Z,11.50
2023-06-07T22:46:32.414Z,12.33
2023-06-07T22:49:03.816Z,15.40
2023-06-07T22:51:34.529Z,15.03
2023-06-07T22:54:02.015Z,13.30
2023-06-07T22:56:28.890Z,11.03
2023-06-07T22:58:55.598Z,12.30
2023-06-07T23:01:24.739Z,14.73
2023-06-07T23:03:51.646Z,11.83
2023-06-07T23:06:20.757Z,12.90
2023-06-07T23:08:54.187Z,10.50
2023-06-07T23:11:21.694Z,10.17
2023-06-07T23:13:48.509Z,11.83
2023-06-07T23:16:15.624Z,15.70
2023-06-07T23:18:42.299Z,18.80
2023-06-07T23:21:10.180Z,19.57
2023-06-07T23:23:37.078Z,15.67
2023-06-07T23:26:05.937Z,14.20
2023-06-07T23:28:32.713Z,14.07
2023-06-07T23:30:59.455Z,14.83
2023-06-07T23:33:27.317Z,16.40
2023-06-07T23:35:55.347Z,12.90
2023-06-07T23:38:22.063Z,12.43
2023-06-07T23:40:48.830Z,11.30
2023-06-07T23:43:15.996Z,10.43
2023-06-07T23:45:42.751Z,9.17
2023-06-07T23:48:09.492Z,7.97
2023-06-07T23:50:36.249Z,9.77
2023-06-07T23:53:04.718Z,9.30
2023-06-07T23:55:31.410Z,9.90
2023-06-07T23:57:58.115Z,10.30
